createdAt,value
2023-03-06T00:01:37.831Z,65.34
2023-03-06T00:04:40.544Z,66.15
2023-03-06T00:07:43.371Z,65.56
2023-03-06T00:10:45.994Z,65.15
2023-03-06T00:13:48.168Z,66.55
2023-03-06T00:16:55.367Z,67.18
2023-03-06T00:19:57.585Z,66.52
2023-03-06T00:23:00.244Z,67.73
2023-03-06T00:26:02.433Z,68.03
2023-03-06T00:29:05.014Z,68.95
2023-03-06T00:32:07.669Z,69.06
2023-03-06T00:35:10.832Z,69.55
2023-03-06T00:38:13.175Z,69.72
2023-03-06T00:41:15.595Z,70.24
2023-03-06T00:44:17.711Z,70.75
2023-03-06T00:47:20.194Z,70.32
2023-03-06T00:50:22.452Z,70.99
2023-03-06T00:53:25.425Z,70.41
2023-03-06T00:56:27.589Z,70.08
2023-03-06T00:59:30.015Z,70.54
2023-03-06T01:02:32.436Z,70.20
2023-03-06T01:05:36.920Z,70.28
2023-03-06T01:08:39.040Z,70.07
2023-03-06T01:11:41.499Z,70.18
2023-03-06T01:14:43.643Z,70.86
2023-03-06T01:17:46.280Z,69.89
2023-03-06T01:20:48.696Z,69.65
2023-03-06T01:23:51.478Z,69.68
2023-03-06T01:26:53.722Z,70.27
2023-03-06T01:29:56.396Z,69.61
2023-03-06T01:32:59.250Z,69.55
2023-03-06T01:36:07.397Z,69.59
2023-03-06T01:39:09.858Z,69.31
2023-03-06T01:42:12.265Z,68.88
2023-03-06T01:45:14.321Z,67.85
2023-03-06T01:48:20.924Z,67.23
2023-03-06T01:51:27.236Z,66.84
2023-03-06T01:54:36.345Z,66.92
2023-03-06T01:57:48.256Z,66.26
2023-03-06T02:00:52.145Z,66.13
2023-03-06T02:03:55.240Z,65.72
2023-03-06T02:07:01.191Z,65.29
2023-03-06T02:10:07.366Z,65.12
2023-03-06T02:13:09.789Z,64.49
2023-03-06T02:16:13.595Z,64.61
2023-03-06T02:19:28.792Z,64.39
2023-03-06T02:22:53.496Z,63.29
2023-03-06T02:25:57.021Z,63.42
2023-03-06T02:29:00.039Z,63.11
2023-03-06T02:32:02.964Z,62.93
2023-03-06T02:35:07.102Z,62.96
2023-03-06T02:38:13.619Z,63.76
2023-03-06T02:41:16.338Z,65.25
2023-03-06T02:44:22.319Z,64.33
2023-03-06T02:47:24.645Z,64.18
2023-03-06T02:50:27.168Z,63.62
2023-03-06T02:53:29.368Z,64.70
2023-03-06T02:56:34.032Z,64.36
2023-03-06T02:59:36.307Z,64.81
2023-03-06T03:02:40.279Z,64.82
2023-03-06T03:05:42.536Z,64.84
2023-03-06T03:08:45.779Z,65.29
2023-03-06T03:11:48.689Z,65.59
2023-03-06T03:14:51.535Z,65.19
2023-03-06T03:17:53.813Z,64.83
2023-03-06T03:20:56.397Z,64.15
2023-03-06T03:23:58.541Z,64.29
2023-03-06T03:27:02.356Z,63.66
2023-03-06T03:30:05.073Z,64.05
2023-03-06T03:33:08.290Z,63.78
2023-03-06T03:36:10.626Z,63.56
2023-03-06T03:39:13.733Z,63.68
2023-03-06T03:42:16.132Z,63.89
2023-03-06T03:45:19.048Z,63.78
2023-03-06T03:48:21.678Z,63.65
2023-03-06T03:51:24.500Z,63.84
2023-03-06T03:54:27.240Z,63.18
2023-03-06T03:57:30.237Z,63.50
2023-03-06T04:00:33.012Z,63.09
2023-03-06T04:03:36.617Z,63.51
2023-03-06T04:06:39.539Z,63.25
2023-03-06T04:09:42.412Z,63.37
2023-03-06T04:12:44.684Z,62.67
2023-03-06T04:15:48.223Z,62.38
2023-03-06T04:18:50.887Z,62.53
2023-03-06T04:21:53.482Z,62.72
2023-03-06T04:24:56.735Z,62.68
2023-03-06T04:27:59.194Z,62.67
2023-03-06T04:31:01.632Z,62.23
2023-03-06T04:34:05.247Z,62.87
2023-03-06T04:37:18.026Z,62.94
2023-03-06T04:40:28.190Z,62.64
2023-03-06T04:43:30.468Z,62.44
2023-03-06T04:46:33.509Z,62.95
2023-03-06T04:49:35.661Z,63.23
2023-03-06T04:52:40.296Z,64.08
2023-03-06T04:55:42.953Z,64.34
2023-03-06T04:58:45.538Z,64.79
2023-03-06T05:01:47.815Z,64.23
2023-03-06T05:04:50.296Z,64.67
2023-03-06T05:07:53.160Z,64.94
2023-03-06T05:10:58.391Z,65.26
2023-03-06T05:14:00.599Z,65.25
2023-03-06T05:17:03.157Z,65.18
2023-03-06T05:20:06.920Z,65.52
2023-03-06T05:23:09.497Z,66.31
2023-03-06T05:26:13.935Z,67.12
2023-03-06T05:29:16.362Z,67.34
2023-03-06T05:32:18.584Z,66.97
2023-03-06T05:35:23.158Z,67.06
2023-03-06T05:38:26.048Z,67.97
2023-03-06T05:41:28.538Z,67.56
2023-03-06T05:44:33.082Z,67.49
2023-03-06T05:47:35.566Z,67.08
2023-03-06T05:50:38.193Z,66.79
2023-03-06T05:53:41.005Z,67.95
2023-03-06T05:56:43.382Z,68.37
2023-03-06T05:59:46.464Z,68.67
2023-03-06T06:02:49.005Z,69.10
2023-03-06T06:05:52.397Z,68.59
2023-03-06T06:08:54.638Z,68.93
2023-03-06T06:12:00.259Z,69.18
2023-03-06T06:15:02.597Z,70.20
2023-03-06T06:18:05.348Z,69.93
2023-03-06T06:21:09.228Z,69.49
2023-03-06T06:24:14.025Z,69.43
2023-03-06T06:27:16.244Z,70.57
2023-03-06T06:30:18.955Z,70.26
2023-03-06T06:33:21.358Z,69.45
2023-03-06T06:36:23.862Z,69.03
2023-03-06T06:39:28.255Z,69.45
2023-03-06T06:42:37.724Z,69.70
2023-03-06T06:45:44.073Z,69.28
2023-03-06T06:48:50.822Z,69.24
2023-03-06T06:51:53.022Z,69.78
2023-03-06T06:54:55.432Z,69.33
2023-03-06T06:57:57.567Z,69.77
2023-03-06T07:01:11.934Z,69.87
2023-03-06T07:04:14.884Z,69.91
2023-03-06T07:07:17.500Z,69.31
2023-03-06T07:10:21.033Z,69.42
2023-03-06T07:13:23.650Z,69.98
2023-03-06T07:16:25.901Z,69.65
2023-03-06T07:19:28.503Z,69.58
2023-03-06T07:22:41.459Z,70.60
2023-03-06T07:25:47.506Z,70.01
2023-03-06T07:28:53.140Z,70.31
2023-03-06T07:31:55.742Z,70.07
2023-03-06T07:35:13.718Z,70.10
2023-03-06T07:38:20.531Z,71.13
2023-03-06T07:41:23.105Z,70.06
2023-03-06T07:44:25.670Z,70.22
2023-03-06T07:47:28.035Z,71.72
2023-03-06T07:50:31.001Z,72.06
2023-03-06T07:53:34.681Z,71.12
2023-03-06T07:56:37.168Z,71.20
2023-03-06T07:59:39.305Z,72.05
2023-03-06T08:02:42.765Z,72.53
2023-03-06T08:05:46.200Z,71.98
2023-03-06T08:08:51.036Z,72.59
2023-03-06T08:11:53.525Z,72.20
2023-03-06T08:14:55.764Z,72.29
2023-03-06T08:17:58.405Z,72.42
2023-03-06T08:21:02.864Z,72.60
2023-03-06T08:24:07.547Z,72.50
2023-03-06T08:27:10.596Z,71.72
2023-03-06T08:30:14.049Z,70.93
2023-03-06T08:33:16.243Z,71.14
2023-03-06T08:36:18.712Z,72.03
2023-03-06T08:39:21.302Z,70.74
2023-03-06T08:42:23.913Z,71.71
2023-03-06T08:45:26.196Z,71.35
2023-03-06T08:48:28.693Z,71.31
2023-03-06T08:51:31.342Z,70.92
2023-03-06T08:54:37.103Z,69.85
2023-03-06T08:57:39.346Z,69.90
2023-03-06T09:00:41.853Z,68.36
2023-03-06T09:03:44.590Z,66.23
2023-03-06T09:06:47.122Z,65.62
2023-03-06T09:09:51.185Z,66.26
2023-03-06T09:12:55.230Z,65.21
2023-03-06T09:15:57.543Z,65.41
2023-03-06T09:19:00.089Z,66.25
2023-03-06T09:22:02.249Z,65.31
2023-03-06T09:25:06.297Z,64.55
2023-03-06T09:28:11.587Z,64.67
2023-03-06T09:31:19.580Z,64.37
2023-03-06T09:34:21.793Z,63.13
2023-03-06T09:37:24.411Z,62.57
2023-03-06T09:41:01.812Z,62.46
2023-03-06T09:44:08.665Z,61.17
2023-03-06T09:47:37.407Z,61.35
2023-03-06T09:50:46.074Z,61.40
2023-03-06T09:53:48.162Z,61.75
2023-03-06T09:56:51.192Z,60.03
2023-03-06T10:00:02.903Z,58.79
2023-03-06T10:03:38.138Z,59.18
2023-03-06T10:06:50.249Z,58.37
2023-03-06T10:09:57.996Z,58.14
2023-03-06T10:13:14.136Z,59.81
2023-03-06T10:16:26.096Z,59.30
2023-03-06T10:19:35.564Z,59.27
2023-03-06T10:22:46.066Z,59.88
2023-03-06T10:25:56.156Z,59.81
2023-03-06T10:29:13.296Z,59.26
2023-03-06T10:32:46.145Z,60.41
2023-03-06T10:35:55.914Z,60.95
2023-03-06T10:38:59.320Z,60.96
2023-03-06T10:42:01.530Z,61.68
2023-03-06T10:45:09.509Z,61.16
2023-03-06T10:48:16.397Z,61.16
2023-03-06T10:51:20.989Z,61.87
2023-03-06T10:54:23.492Z,61.81
2023-03-06T10:57:30.998Z,61.02
2023-03-06T11:00:37.993Z,61.19
2023-03-06T11:03:41.060Z,60.18
2023-03-06T11:06:43.567Z,60.50
2023-03-06T11:10:00.141Z,59.63
2023-03-06T11:13:08.440Z,59.04
2023-03-06T11:16:13.624Z,58.48
2023-03-06T11:19:22.972Z,57.84
2023-03-06T11:22:25.491Z,57.52
2023-03-06T11:25:34.573Z,57.65
2023-03-06T11:29:06.552Z,56.44
2023-03-06T11:32:08.748Z,56.77
2023-03-06T11:35:22.213Z,56.68
2023-03-06T11:38:54.280Z,57.81
2023-03-06T11:42:12.255Z,57.25
2023-03-06T11:45:31.899Z,57.69
2023-03-06T11:48:45.152Z,57.43
2023-03-06T11:51:54.272Z,58.28
2023-03-06T11:54:57.974Z,58.15
2023-03-06T11:58:18.203Z,57.82
2023-03-06T12:01:33.505Z,57.83
2023-03-06T12:04:48.471Z,56.74
2023-03-06T12:08:08.293Z,56.49
2023-03-06T12:11:22.720Z,56.64
2023-03-06T12:14:39.880Z,57.03
2023-03-06T12:18:16.607Z,57.24
2023-03-06T12:21:53.412Z,56.88
2023-03-06T12:25:26.693Z,56.37
2023-03-06T12:28:39.744Z,56.85
2023-03-06T12:32:04.215Z,56.46
2023-03-06T12:35:09.103Z,56.62
2023-03-06T12:38:31.339Z,57.73
2023-03-06T12:41:43.930Z,57.63
2023-03-06T12:45:27.693Z,57.66
2023-03-06T12:48:35.629Z,57.44
2023-03-06T12:51:39.931Z,58.17
2023-03-06T12:54:45.784Z,58.66
2023-03-06T12:57:49.127Z,59.69
2023-03-06T13:01:30.171Z,59.78
2023-03-06T13:04:43.995Z,58.59
2023-03-06T13:08:04.643Z,58.89
2023-03-06T13:11:28.659Z,58.84
2023-03-06T13:14:54.652Z,58.84
2023-03-06T13:17:58.289Z,58.59
2023-03-06T13:21:01.092Z,59.51
2023-03-06T13:24:05.720Z,59.74
2023-03-06T13:27:10.614Z,59.44
2023-03-06T13:30:22.442Z,59.52
2023-03-06T13:33:27.618Z,60.43
2023-03-06T13:36:31.544Z,60.92
2023-03-06T13:39:56.887Z,61.54
2023-03-06T13:43:12.517Z,62.76
2023-03-06T13:46:28.948Z,63.46
2023-03-06T13:49:32.367Z,63.65
2023-03-06T13:52:46.696Z,63.87
2023-03-06T13:56:08.292Z,64.80
2023-03-06T13:59:34.001Z,65.98
2023-03-06T14:02:36.603Z,67.05
2023-03-06T14:05:51.031Z,68.00
2023-03-06T14:08:53.286Z,67.86
2023-03-06T14:12:23.672Z,68.46
2023-03-06T14:15:30.535Z,68.33
2023-03-06T14:18:39.940Z,68.97
2023-03-06T14:21:44.957Z,69.25
2023-03-06T14:25:02.909Z,70.07
2023-03-06T14:28:13.785Z,70.05
2023-03-06T14:31:20.483Z,70.45
2023-03-06T14:34:25.673Z,71.21
2023-03-06T14:37:29.085Z,70.69
2023-03-06T14:40:45.069Z,71.28
2023-03-06T14:43:47.620Z,70.40
2023-03-06T14:46:52.956Z,70.64
2023-03-06T14:50:32.415Z,71.29
2023-03-06T14:53:35.024Z,70.99
2023-03-06T14:56:42.999Z,71.43
2023-03-06T14:59:56.960Z,71.54
2023-03-06T15:02:59.955Z,70.92
2023-03-06T15:06:03.807Z,71.08
2023-03-06T15:09:30.170Z,71.84
2023-03-06T15:12:34.930Z,71.83
2023-03-06T15:15:37.508Z,71.67
2023-03-06T15:18:54.476Z,72.00
2023-03-06T15:21:56.927Z,71.84
2023-03-06T15:25:37.374Z,72.11
2023-03-06T15:28:39.974Z,72.07
2023-03-06T15:31:45.781Z,72.56
2023-03-06T15:34:48.350Z,72.72
2023-03-06T15:37:51.252Z,72.42
2023-03-06T15:40:58.354Z,73.01
2023-03-06T15:44:02.670Z,72.53
2023-03-06T15:47:09.183Z,72.52
2023-03-06T15:50:16.689Z,73.27
2023-03-06T15:53:20.315Z,73.34
2023-03-06T15:56:34.410Z,73.09
2023-03-06T15:59:43.173Z,73.47
2023-03-06T16:02:45.283Z,73.78
2023-03-06T16:05:47.779Z,73.42
2023-03-06T16:08:51.186Z,73.54
2023-03-06T16:11:54.026Z,74.01
2023-03-06T16:14:57.549Z,74.13
2023-03-06T16:18:00.263Z,74.68
2023-03-06T16:21:02.630Z,75.68
2023-03-06T16:24:05.213Z,75.33
2023-03-06T16:27:16.863Z,75.58
2023-03-06T16:30:20.177Z,75.57
2023-03-06T16:33:22.308Z,75.31
2023-03-06T16:36:27.109Z,75.59
2023-03-06T16:39:29.256Z,76.07
2023-03-06T16:42:31.951Z,76.18
2023-03-06T16:45:39.111Z,75.72
2023-03-06T16:48:41.563Z,75.61
2023-03-06T16:51:44.114Z,76.08
2023-03-06T16:54:46.552Z,76.12
2023-03-06T16:57:48.730Z,76.91
2023-03-06T17:00:51.288Z,76.78
2023-03-06T17:03:53.503Z,76.67
2023-03-06T17:06:55.974Z,76.32
2023-03-06T17:09:58.113Z,76.95
2023-03-06T17:13:00.618Z,76.88
2023-03-06T17:16:03.139Z,76.43
2023-03-06T17:19:05.985Z,76.50
2023-03-06T17:22:08.166Z,77.05
2023-03-06T17:25:11.035Z,76.60
2023-03-06T17:28:13.719Z,76.81
2023-03-06T17:31:22.023Z,76.55
2023-03-06T17:34:24.669Z,76.52
2023-03-06T17:37:27.293Z,76.48
2023-03-06T17:40:29.543Z,76.32
2023-03-06T17:43:32.422Z,75.70
2023-03-06T17:46:34.789Z,76.10
2023-03-06T17:49:37.237Z,75.80
2023-03-06T17:52:39.416Z,76.13
2023-03-06T17:55:41.853Z,76.62
2023-03-06T17:58:44.176Z,76.41
2023-03-06T18:01:46.924Z,76.31
2023-03-06T18:04:49.418Z,76.50
2023-03-06T18:07:51.626Z,77.30
2023-03-06T18:11:04.325Z,77.67
2023-03-06T18:14:06.495Z,77.50
2023-03-06T18:17:09.029Z,77.35
2023-03-06T18:20:11.850Z,77.63
2023-03-06T18:23:14.385Z,77.69
2023-03-06T18:26:21.870Z,77.44
2023-03-06T18:29:24.513Z,76.94
2023-03-06T18:32:26.700Z,77.10
2023-03-06T18:35:29.407Z,77.04
2023-03-06T18:38:31.625Z,77.39
2023-03-06T18:41:35.849Z,77.52
2023-03-06T18:44:38.635Z,77.52
2023-03-06T18:47:41.186Z,77.25
2023-03-06T18:50:43.414Z,77.77
2023-03-06T18:53:46.378Z,78.20
2023-03-06T18:56:48.525Z,77.36
2023-03-06T18:59:51.014Z,77.86
2023-03-06T19:02:53.201Z,78.56
2023-03-06T19:05:55.818Z,78.15
2023-03-06T19:09:02.148Z,79.15
2023-03-06T19:12:05.669Z,80.52
2023-03-06T19:15:08.435Z,82.34
2023-03-06T19:18:12.339Z,82.04
2023-03-06T19:21:21.836Z,83.86
2023-03-06T19:24:24.290Z,85.22
2023-03-06T19:27:26.464Z,83.91
2023-03-06T19:30:29.042Z,83.43
2023-03-06T19:33:31.198Z,82.75
2023-03-06T19:36:34.314Z,80.61
2023-03-06T19:39:36.481Z,80.59
2023-03-06T19:42:38.945Z,81.03
2023-03-06T19:45:43.218Z,80.81
2023-03-06T19:48:46.226Z,82.28
2023-03-06T19:51:48.352Z,81.95
2023-03-06T19:54:51.407Z,82.17
2023-03-06T19:57:53.907Z,82.37
2023-03-06T20:01:12.631Z,82.96
2023-03-06T20:04:16.885Z,82.67
2023-03-06T20:07:19.556Z,83.41
2023-03-06T20:10:22.000Z,83.56
2023-03-06T20:13:24.227Z,83.25
2023-03-06T20:16:28.031Z,83.53
2023-03-06T20:19:30.244Z,84.29
2023-03-06T20:22:32.660Z,85.14
2023-03-06T20:25:36.442Z,84.29
2023-03-06T20:28:40.744Z,84.83
2023-03-06T20:31:43.149Z,84.70
2023-03-06T20:34:45.906Z,84.19
2023-03-06T20:37:48.098Z,85.46
2023-03-06T20:40:54.525Z,85.52
2023-03-06T20:43:58.519Z,85.78
2023-03-06T20:47:01.105Z,85.69
2023-03-06T20:50:03.511Z,85.76
2023-03-06T20:53:06.404Z,85.92
2023-03-06T20:56:16.363Z,85.25
2023-03-06T20:59:18.863Z,85.05
2023-03-06T21:02:21.141Z,85.11
2023-03-06T21:05:23.580Z,84.73
2023-03-06T21:08:25.874Z,85.81
2023-03-06T21:11:28.654Z,86.14
2023-03-06T21:14:31.092Z,86.33
2023-03-06T21:17:33.646Z,86.16
2023-03-06T21:20:38.667Z,84.86
2023-03-06T21:23:41.110Z,85.74
2023-03-06T21:26:43.264Z,85.87
2023-03-06T21:29:46.290Z,85.12
2023-03-06T21:32:51.089Z,85.27
2023-03-06T21:35:53.715Z,86.26
2023-03-06T21:38:55.906Z,86.36
2023-03-06T21:41:58.442Z,85.65
2023-03-06T21:45:00.568Z,85.29
2023-03-06T21:48:03.427Z,85.27
2023-03-06T21:51:10.371Z,86.37
2023-03-06T21:54:13.027Z,87.09
2023-03-06T21:57:15.389Z,86.04
2023-03-06T22:00:19.364Z,85.95
2023-03-06T22:03:21.820Z,85.80
2023-03-06T22:06:26.197Z,86.63
2023-03-06T22:09:28.673Z,86.10
2023-03-06T22:12:32.886Z,85.78
2023-03-06T22:15:35.296Z,86.04
2023-03-06T22:18:38.037Z,86.92
2023-03-06T22:21:40.506Z,87.16
2023-03-06T22:24:42.625Z,87.25
2023-03-06T22:27:45.033Z,87.56
2023-03-06T22:30:47.241Z,87.90
2023-03-06T22:33:54.300Z,87.91
2023-03-06T22:36:56.475Z,87.57
2023-03-06T22:39:58.912Z,87.74
2023-03-06T22:43:01.190Z,88.62
2023-03-06T22:46:06.486Z,88.88
2023-03-06T22:49:11.606Z,89.38
2023-03-06T22:52:15.245Z,88.94
2023-03-06T22:55:17.546Z,89.47
2023-03-06T22:58:20.040Z,88.83
2023-03-06T23:01:25.302Z,88.62
2023-03-06T23:04:27.819Z,88.43
2023-03-06T23:07:30.375Z,88.75
2023-03-06T23:10:39.800Z,88.68
2023-03-06T23:14:01.307Z,88.14
2023-03-06T23:17:21.647Z,89.03
2023-03-06T23:20:43.542Z,88.58
2023-03-06T23:24:04.468Z,88.96
2023-03-06T23:27:07.108Z,88.39
2023-03-06T23:30:09.899Z,89.54
2023-03-06T23:33:12.388Z,90.26
2023-03-06T23:36:16.616Z,91.06
2023-03-06T23:39:19.167Z,91.03
2023-03-06T23:42:22.530Z,91.52
2023-03-06T23:45:25.047Z,91.66
2023-03-06T23:48:27.806Z,91.54
2023-03-06T23:51:30.289Z,91.62
2023-03-06T23:54:34.290Z,91.55
2023-03-06T23:57:37.141Z,91.17
